createdAt,value
2018-01-02T00:00:50.865Z,4.42
2018-01-02T00:03:16.887Z,4.35
2018-01-02T00:05:42.927Z,4.46
2018-01-02T00:08:08.971Z,4.44
2018-01-02T00:10:34.960Z,4.46
2018-01-02T00:13:01.018Z,4.43
2018-01-02T00:15:26.983Z,4.47
2018-01-02T00:17:52.917Z,4.42
2018-01-02T00:20:18.977Z,4.26
2018-01-02T00:22:45.014Z,4.37
2018-01-02T00:25:11.075Z,4.42
2018-01-02T00:27:37.069Z,4.42
2018-01-02T00:30:03.232Z,4.45
2018-01-02T00:32:29.267Z,4.55
2018-01-02T00:34:55.295Z,4.55
2018-01-02T00:37:21.300Z,4.50
2018-01-02T00:39:47.350Z,4.45
2018-01-02T00:42:13.405Z,4.43
2018-01-02T00:44:39.459Z,4.52
2018-01-02T00:47:05.474Z,4.53
2018-01-02T00:49:31.494Z,4.54
2018-01-02T00:51:57.532Z,4.55
2018-01-02T00:54:23.572Z,4.56
2018-01-02T00:56:49.664Z,4.58
2018-01-02T00:59:15.888Z,4.65
2018-01-02T01:01:41.970Z,4.65
2018-01-02T01:04:08.012Z,4.59
2018-01-02T01:06:34.121Z,4.62
2018-01-02T01:09:00.109Z,4.65
2018-01-02T01:11:26.165Z,4.59
2018-01-02T01:13:52.198Z,4.62
2018-01-02T01:16:18.273Z,4.67
2018-01-02T01:18:44.614Z,4.65
2018-01-02T01:21:10.668Z,4.76
2018-01-02T01:23:36.725Z,4.81
2018-01-02T01:26:02.773Z,4.84
2018-01-02T01:28:28.830Z,4.96
2018-01-02T01:30:54.885Z,5.01
2018-01-02T01:33:20.908Z,5.03
2018-01-02T01:35:46.963Z,5.05
2018-01-02T01:38:12.993Z,5.10
2018-01-02T01:40:39.004Z,5.09
2018-01-02T01:43:05.013Z,5.09
2018-01-02T01:45:31.080Z,5.06
2018-01-02T01:47:57.089Z,5.04
2018-01-02T01:50:23.119Z,5.06
2018-01-02T01:52:49.167Z,5.03
2018-01-02T01:55:15.222Z,5.05
2018-01-02T01:57:41.248Z,5.05
2018-01-02T02:00:07.290Z,5.03
2018-01-02T02:02:33.357Z,5.05
2018-01-02T02:04:59.357Z,5.11
2018-01-02T02:07:25.393Z,5.12
2018-01-02T02:09:51.434Z,5.13
2018-01-02T02:12:17.488Z,5.15
2018-01-02T02:14:43.553Z,5.16
2018-01-02T02:17:09.524Z,5.23
2018-01-02T02:19:35.510Z,5.23
2018-01-02T02:22:01.523Z,5.21
2018-01-02T02:24:27.566Z,5.22
2018-01-02T02:26:53.565Z,5.22
2018-01-02T02:29:19.637Z,5.21
2018-01-02T02:31:45.661Z,5.26
2018-01-02T02:34:11.734Z,5.24
2018-01-02T02:36:37.758Z,5.28
2018-01-02T02:39:03.764Z,5.28
2018-01-02T02:41:29.793Z,5.22
2018-01-02T02:43:55.816Z,5.19
2018-01-02T02:46:21.866Z,5.18
2018-01-02T02:48:47.889Z,5.18
2018-01-02T02:51:13.948Z,5.19
2018-01-02T02:53:39.961Z,5.18
2018-01-02T02:56:05.965Z,5.16
2018-01-02T02:58:32.041Z,5.17
2018-01-02T03:00:58.030Z,5.13
2018-01-02T03:03:24.087Z,5.16
2018-01-02T03:05:50.205Z,5.12
2018-01-02T03:08:16.237Z,5.12
2018-01-02T03:10:42.321Z,5.10
2018-01-02T03:13:08.364Z,5.09
2018-01-02T03:15:34.407Z,4.97
2018-01-02T03:18:00.457Z,5.04
2018-01-02T03:20:26.439Z,5.06
2018-01-02T03:22:52.533Z,5.06
2018-01-02T03:25:18.568Z,5.06
2018-01-02T03:27:44.562Z,5.06
2018-01-02T03:30:10.643Z,5.05
2018-01-02T03:32:36.688Z,5.00
2018-01-02T03:35:03.025Z,5.04
2018-01-02T03:37:29.078Z,4.98
2018-01-02T03:39:55.116Z,4.92
2018-01-02T03:42:21.188Z,4.89
2018-01-02T03:44:47.235Z,4.87
2018-01-02T03:47:13.369Z,4.82
2018-01-02T03:49:39.405Z,4.75
2018-01-02T03:52:05.429Z,4.79
2018-01-02T03:54:31.498Z,4.74
2018-01-02T03:56:57.539Z,4.73
2018-01-02T03:59:23.582Z,4.72
2018-01-02T04:01:49.592Z,4.67
2018-01-02T04:04:15.597Z,4.62
2018-01-02T04:06:41.672Z,4.50
2018-01-02T04:09:07.694Z,4.53
2018-01-02T04:11:33.745Z,4.53
2018-01-02T04:13:59.828Z,4.54
2018-01-02T04:16:25.880Z,4.52
2018-01-02T04:18:51.925Z,4.46
2018-01-02T04:21:17.997Z,4.45
2018-01-02T04:23:43.999Z,4.41
2018-01-02T04:26:10.020Z,4.41
2018-01-02T04:28:36.056Z,4.42
2018-01-02T04:31:02.104Z,4.42
2018-01-02T04:33:28.137Z,4.43
2018-01-02T04:35:54.176Z,4.43
2018-01-02T04:38:20.204Z,4.42
2018-01-02T04:40:46.220Z,4.39
2018-01-02T04:43:12.241Z,4.37
2018-01-02T04:45:38.264Z,4.38
2018-01-02T04:48:04.449Z,4.38
2018-01-02T04:50:30.449Z,4.36
2018-01-02T04:52:56.576Z,4.37
2018-01-02T04:55:22.572Z,4.36
2018-01-02T04:57:48.648Z,4.35
2018-01-02T05:00:14.602Z,4.33
2018-01-02T05:02:40.625Z,4.29
2018-01-02T05:05:06.652Z,4.28
2018-01-02T05:07:32.700Z,4.22
2018-01-02T05:09:58.780Z,4.17
2018-01-02T05:12:24.817Z,4.10
2018-01-02T05:14:50.829Z,4.07
2018-01-02T05:17:16.874Z,4.05
2018-01-02T05:19:42.913Z,4.05
2018-01-02T05:22:08.980Z,4.03
2018-01-02T05:24:35.015Z,4.03
2018-01-02T05:27:00.952Z,4.00
2018-01-02T05:29:27.016Z,3.99
2018-01-02T05:31:53.090Z,3.95
2018-01-02T05:34:19.112Z,3.93
2018-01-02T05:36:45.109Z,3.88
2018-01-02T05:39:11.116Z,3.82
2018-01-02T05:41:37.203Z,3.82
2018-01-02T05:44:03.250Z,3.78
2018-01-02T05:46:29.317Z,3.77
2018-01-02T05:48:55.350Z,3.76
2018-01-02T05:51:21.384Z,3.77
2018-01-02T05:53:47.412Z,3.78
2018-01-02T05:56:13.472Z,3.82
2018-01-02T05:58:39.516Z,3.83
2018-01-02T06:01:05.577Z,3.83
2018-01-02T06:03:31.569Z,3.81
2018-01-02T06:05:57.630Z,3.82
2018-01-02T06:08:23.668Z,3.80
2018-01-02T06:10:49.813Z,3.76
2018-01-02T06:13:15.805Z,3.79
2018-01-02T06:15:41.838Z,3.79
2018-01-02T06:18:07.903Z,3.76
2018-01-02T06:20:33.962Z,3.75
2018-01-02T06:23:00.011Z,3.75
2018-01-02T06:25:26.024Z,3.75
2018-01-02T06:27:52.121Z,3.78
2018-01-02T06:30:18.220Z,3.80
2018-01-02T06:32:44.242Z,3.77
2018-01-02T06:35:10.357Z,3.78
2018-01-02T06:37:36.449Z,3.80
2018-01-02T06:40:02.474Z,3.81
2018-01-02T06:42:28.497Z,3.80
2018-01-02T06:44:54.504Z,3.79
2018-01-02T06:47:20.595Z,3.78
2018-01-02T06:49:46.670Z,3.74
2018-01-02T06:52:12.758Z,3.75
2018-01-02T06:54:38.837Z,3.73
2018-01-02T06:57:04.860Z,3.75
2018-01-02T06:59:30.912Z,3.71
2018-01-02T07:01:57.054Z,3.71
2018-01-02T07:04:23.084Z,3.69
2018-01-02T07:06:49.096Z,3.72
2018-01-02T07:09:15.204Z,3.72
2018-01-02T07:11:41.221Z,3.71
2018-01-02T07:14:07.324Z,3.71
2018-01-02T07:16:33.342Z,3.71
2018-01-02T07:18:59.379Z,3.74
2018-01-02T07:21:25.761Z,3.75
2018-01-02T07:23:51.793Z,3.76
2018-01-02T07:26:17.897Z,3.75
2018-01-02T07:28:43.904Z,3.77
2018-01-02T07:31:09.988Z,3.78
2018-01-02T07:33:36.028Z,3.80
2018-01-02T07:36:02.062Z,3.83
2018-01-02T07:38:28.118Z,3.83
2018-01-02T07:40:54.278Z,3.86
2018-01-02T07:43:20.353Z,3.85
2018-01-02T07:45:46.441Z,3.81
2018-01-02T07:48:12.507Z,3.81
2018-01-02T07:50:38.511Z,3.77
2018-01-02T07:53:04.589Z,3.76
2018-01-02T07:55:30.800Z,3.78
2018-01-02T07:57:56.868Z,3.78
2018-01-02T08:00:22.861Z,3.77
2018-01-02T08:02:48.868Z,3.82
2018-01-02T08:05:14.964Z,3.81
2018-01-02T08:07:41.008Z,3.80
2018-01-02T08:10:07.021Z,3.84
2018-01-02T08:12:33.092Z,3.88
2018-01-02T08:14:59.295Z,3.91
2018-01-02T08:17:25.353Z,3.93
2018-01-02T08:19:51.488Z,3.94
2018-01-02T08:22:17.554Z,3.95
2018-01-02T08:24:43.624Z,4.00
2018-01-02T08:27:09.665Z,4.06
2018-01-02T08:29:35.647Z,4.08
2018-01-02T08:32:01.694Z,4.09
2018-01-02T08:34:27.733Z,4.10
2018-01-02T08:36:53.748Z,4.17
2018-01-02T08:39:19.781Z,4.17
2018-01-02T08:41:45.828Z,4.25
2018-01-02T08:44:11.858Z,4.26
2018-01-02T08:46:37.881Z,4.28
2018-01-02T08:49:04.004Z,4.29
2018-01-02T08:51:30.048Z,4.30
2018-01-02T08:53:56.077Z,4.32
2018-01-02T08:56:22.122Z,4.31
2018-01-02T08:58:48.205Z,4.35
2018-01-02T09:01:14.216Z,4.37
2018-01-02T09:03:40.256Z,4.38
2018-01-02T09:06:06.352Z,4.39
2018-01-02T09:08:32.447Z,4.42
2018-01-02T09:10:58.464Z,4.38
2018-01-02T09:13:30.562Z,4.42
2018-01-02T09:15:56.670Z,4.44
2018-01-02T09:18:22.762Z,4.45
2018-01-02T09:20:48.905Z,4.46
2018-01-02T09:23:14.951Z,4.44
2018-01-02T09:25:40.981Z,4.55
2018-01-02T09:28:07.033Z,4.59
2018-01-02T09:30:33.040Z,4.64
2018-01-02T09:32:59.025Z,4.59
2018-01-02T09:35:25.045Z,4.59
2018-01-02T09:37:51.081Z,4.63
2018-01-02T09:40:17.112Z,4.62
2018-01-02T09:42:43.161Z,4.62
2018-01-02T09:45:09.233Z,4.63
2018-01-02T09:47:35.325Z,4.68
2018-01-02T09:50:01.386Z,4.73
2018-01-02T09:52:27.493Z,4.73
2018-01-02T09:54:53.508Z,4.74
2018-01-02T09:57:19.541Z,4.72
2018-01-02T09:59:45.633Z,4.76
2018-01-02T10:02:11.849Z,4.76
2018-01-02T10:04:37.861Z,4.77
2018-01-02T10:07:03.932Z,4.69
2018-01-02T10:09:29.983Z,4.67
2018-01-02T10:11:56.021Z,4.61
2018-01-02T10:14:22.072Z,4.53
2018-01-02T10:16:48.158Z,4.60
2018-01-02T10:19:14.182Z,4.63
2018-01-02T10:21:40.212Z,4.64
2018-01-02T10:24:06.289Z,4.65
2018-01-02T10:26:32.436Z,4.69
2018-01-02T10:28:58.480Z,4.71
2018-01-02T10:31:24.589Z,4.71
2018-01-02T10:33:50.648Z,4.75
2018-01-02T10:36:16.726Z,4.82
2018-01-02T10:38:42.794Z,4.81
2018-01-02T10:41:08.830Z,4.78
2018-01-02T10:43:34.889Z,4.80
2018-01-02T10:46:01.002Z,4.71
2018-01-02T10:48:27.169Z,4.80
2018-01-02T10:50:53.295Z,4.76
2018-01-02T10:53:19.429Z,4.74
2018-01-02T10:55:45.462Z,4.70
2018-01-02T10:58:11.433Z,4.67
2018-01-02T11:03:43.533Z,4.73
2018-01-02T11:06:09.584Z,4.75
2018-01-02T11:08:35.634Z,4.85
2018-01-02T11:11:07.654Z,4.85
2018-01-02T11:13:39.764Z,4.77
2018-01-02T11:16:05.837Z,4.80
2018-01-02T11:18:31.916Z,4.86
2018-01-02T11:20:57.943Z,4.88
2018-01-02T11:23:24.000Z,4.88
2018-01-02T11:25:50.543Z,4.85
2018-01-02T11:28:16.653Z,4.90
2018-01-02T11:30:42.764Z,4.87
2018-01-02T11:33:08.904Z,4.99
2018-01-02T11:35:34.982Z,5.04
2018-01-02T11:38:01.070Z,5.04
2018-01-02T11:40:27.157Z,5.05
2018-01-02T11:42:53.155Z,5.12
2018-01-02T11:45:19.186Z,5.19
2018-01-02T11:47:45.219Z,5.22
2018-01-02T11:50:11.299Z,5.26
2018-01-02T11:52:37.342Z,5.23
2018-01-02T11:55:03.497Z,5.17
2018-01-02T11:57:29.572Z,5.26
2018-01-02T11:59:55.617Z,5.20
2018-01-02T12:02:21.734Z,5.14
2018-01-02T12:04:47.770Z,5.13
2018-01-02T12:07:13.805Z,5.25
2018-01-02T12:09:39.817Z,5.29
2018-01-02T12:12:05.861Z,5.25
2018-01-02T12:14:32.324Z,5.21
2018-01-02T12:16:58.398Z,5.18
2018-01-02T12:19:24.395Z,5.16
2018-01-02T12:21:50.436Z,5.08
2018-01-02T12:24:16.471Z,5.09
2018-01-02T12:26:42.557Z,5.11
2018-01-02T12:29:08.629Z,5.10
2018-01-02T12:31:34.657Z,4.91
2018-01-02T12:34:00.698Z,5.00
2018-01-02T12:36:26.787Z,4.89
2018-01-02T12:38:52.870Z,4.83
2018-01-02T12:41:18.855Z,4.95
2018-01-02T12:43:44.921Z,4.94
2018-01-02T12:46:10.996Z,4.95
2018-01-02T12:48:37.045Z,4.97
2018-01-02T12:51:03.144Z,5.08
2018-01-02T12:53:46.480Z,5.26
2018-01-02T12:56:12.539Z,5.27
2018-01-02T12:58:38.612Z,5.28
2018-01-02T13:01:04.646Z,5.33
2018-01-02T13:03:31.860Z,5.30
2018-01-02T13:05:57.895Z,5.15
2018-01-02T13:08:23.946Z,5.17
2018-01-02T13:10:50.011Z,5.13
2018-01-02T13:13:16.004Z,5.07
2018-01-02T13:15:42.054Z,5.14
2018-01-02T13:18:08.124Z,5.01
2018-01-02T13:20:34.189Z,4.89
2018-01-02T13:25:31.949Z,4.75
2018-01-02T13:27:57.976Z,4.75
2018-01-02T13:30:23.944Z,4.47
2018-01-02T13:32:49.976Z,4.40
2018-01-02T13:35:16.002Z,4.38
2018-01-02T13:37:42.053Z,4.45
2018-01-02T13:40:08.048Z,4.55
2018-01-02T13:42:34.137Z,4.60
2018-01-02T13:45:00.160Z,4.99
2018-01-02T13:47:26.253Z,5.32
2018-01-02T13:49:52.277Z,5.36
2018-01-02T13:52:18.287Z,5.16
2018-01-02T13:54:44.461Z,5.15
2018-01-02T13:57:10.549Z,4.94
2018-01-02T13:59:36.579Z,4.90
2018-01-02T14:02:02.629Z,4.91
2018-01-02T14:04:28.727Z,4.83
2018-01-02T14:06:54.802Z,4.87
2018-01-02T14:09:20.853Z,4.75
2018-01-02T14:11:46.861Z,4.89
2018-01-02T14:14:12.931Z,4.82
2018-01-02T14:16:38.953Z,4.83
2018-01-02T14:19:05.114Z,4.78
2018-01-02T14:21:31.137Z,4.70
2018-01-02T14:23:57.169Z,4.52
2018-01-02T14:26:23.224Z,4.66
2018-01-02T14:28:49.264Z,4.68
2018-01-02T14:31:15.229Z,4.52
2018-01-02T14:33:41.247Z,4.53
2018-01-02T14:36:07.270Z,4.60
2018-01-02T14:38:33.341Z,4.68
2018-01-02T14:40:59.409Z,4.55
2018-01-02T14:43:25.405Z,4.62
2018-01-02T14:45:51.457Z,4.64
2018-01-02T14:48:17.497Z,4.66
2018-01-02T14:50:43.545Z,4.68
2018-01-02T14:53:09.543Z,4.55
2018-01-02T14:55:35.587Z,4.64
2018-01-02T14:58:01.658Z,4.57
2018-01-02T15:00:27.749Z,4.48
2018-01-02T15:02:53.861Z,4.45
2018-01-02T15:05:19.893Z,4.33
2018-01-02T15:07:45.942Z,4.35
2018-01-02T15:10:11.985Z,4.39
2018-01-02T15:12:38.098Z,4.40
2018-01-02T15:15:04.116Z,4.42
2018-01-02T15:17:30.182Z,4.36
2018-01-02T15:19:56.218Z,4.31
2018-01-02T15:22:22.232Z,4.36
2018-01-02T15:24:49.216Z,4.33
2018-01-02T15:27:16.271Z,4.46
2018-01-02T15:29:42.780Z,4.43
2018-01-02T15:32:08.882Z,4.45
2018-01-02T15:34:34.994Z,4.50
2018-01-02T15:37:01.139Z,4.37
2018-01-02T15:39:27.220Z,4.19
2018-01-02T15:41:53.240Z,4.28
2018-01-02T15:44:19.305Z,4.42
2018-01-02T15:46:45.380Z,4.34
2018-01-02T15:49:11.442Z,4.42
2018-01-02T15:51:37.496Z,4.40
2018-01-02T15:54:03.549Z,4.41
2018-01-02T15:56:29.561Z,4.40
2018-01-02T15:58:55.615Z,4.35
2018-01-02T16:01:22.955Z,4.40
2018-01-02T16:03:49.783Z,4.44
2018-01-02T16:06:16.906Z,4.42
2018-01-02T16:08:43.615Z,4.35
2018-01-02T16:11:10.569Z,4.29
2018-01-02T16:13:36.690Z,4.27
2018-01-02T16:16:02.818Z,4.27
2018-01-02T16:18:28.899Z,4.27
2018-01-02T16:20:54.973Z,4.28
2018-01-02T16:23:21.054Z,4.12
2018-01-02T16:25:47.140Z,4.28
2018-01-02T16:28:13.395Z,4.35
2018-01-02T16:30:39.460Z,4.37
2018-01-02T16:33:05.492Z,4.34
2018-01-02T16:35:32.120Z,4.34
2018-01-02T16:37:58.544Z,4.31
2018-01-02T16:40:24.568Z,4.29
2018-01-02T16:42:50.631Z,4.37
2018-01-02T16:45:16.717Z,4.36
2018-01-02T16:47:42.764Z,4.31
2018-01-02T16:50:08.816Z,4.26
2018-01-02T16:52:34.985Z,4.25
2018-01-02T16:55:01.029Z,4.30
2018-01-02T16:57:27.045Z,4.30
2018-01-02T16:59:53.145Z,4.25
2018-01-02T17:02:19.171Z,4.25
2018-01-02T17:04:45.258Z,4.20
2018-01-02T17:07:11.295Z,4.18
2018-01-02T17:09:37.319Z,4.20
2018-01-02T17:12:03.361Z,4.15
2018-01-02T17:14:29.410Z,4.17
2018-01-02T17:16:55.531Z,4.06
2018-01-02T17:19:21.617Z,4.05
2018-01-02T17:21:47.664Z,3.99
2018-01-02T17:24:13.722Z,3.97
2018-01-02T17:26:39.734Z,3.92
2018-01-02T17:29:05.747Z,3.59
2018-01-02T17:31:31.780Z,3.54
2018-01-02T17:33:57.845Z,3.51
2018-01-02T17:36:23.927Z,3.39
2018-01-02T17:38:49.982Z,3.31
2018-01-02T17:41:16.033Z,3.37
2018-01-02T17:43:42.040Z,3.50
2018-01-02T17:46:08.066Z,3.61
2018-01-02T17:48:34.065Z,3.74
2018-01-02T17:51:00.081Z,3.81
2018-01-02T17:53:26.160Z,3.77
2018-01-02T17:55:52.196Z,3.70
2018-01-02T17:58:18.288Z,3.75
2018-01-02T18:00:44.416Z,3.73
2018-01-02T18:03:10.461Z,3.69
2018-01-02T18:05:36.532Z,3.74
2018-01-02T18:08:02.633Z,3.71
2018-01-02T18:10:28.689Z,3.73
2018-01-02T18:12:54.734Z,3.76
2018-01-02T18:15:20.845Z,3.72
2018-01-02T18:17:46.897Z,3.68
2018-01-02T18:20:12.929Z,3.65
2018-01-02T18:22:38.977Z,3.65
2018-01-02T18:25:05.021Z,3.66
2018-01-02T18:27:31.090Z,3.67
2018-01-02T18:29:57.128Z,3.67
2018-01-02T18:32:23.206Z,3.65
2018-01-02T18:34:49.234Z,3.66
2018-01-02T18:37:15.312Z,3.68
2018-01-02T18:39:41.324Z,3.67
2018-01-02T18:42:07.398Z,3.70
2018-01-02T18:44:33.491Z,3.75
2018-01-02T18:46:59.493Z,3.65
2018-01-02T18:49:25.593Z,3.71
2018-01-02T18:51:51.620Z,3.76
2018-01-02T18:54:17.694Z,3.53
2018-01-02T18:56:43.725Z,3.75
2018-01-02T18:59:09.828Z,3.75
2018-01-02T19:01:35.932Z,3.72
2018-01-02T19:04:02.030Z,3.73
2018-01-02T19:06:28.090Z,3.73
2018-01-02T19:08:54.073Z,3.78
2018-01-02T19:11:20.149Z,3.77
2018-01-02T19:13:46.179Z,3.77
2018-01-02T19:16:12.226Z,3.72
2018-01-02T19:18:38.259Z,3.70
2018-01-02T19:21:04.338Z,3.70
2018-01-02T19:23:30.445Z,3.71
2018-01-02T19:25:56.453Z,3.66
2018-01-02T19:28:22.492Z,3.64
2018-01-02T19:30:48.589Z,3.59
2018-01-02T19:33:14.652Z,3.62
2018-01-02T19:35:40.935Z,3.65
2018-01-02T19:38:07.920Z,3.63
2018-01-02T19:40:34.042Z,3.63
2018-01-02T19:43:00.160Z,3.64
2018-01-02T19:45:26.223Z,3.61
2018-01-02T19:47:52.327Z,3.58
2018-01-02T19:50:18.410Z,3.53
2018-01-02T19:52:44.463Z,3.53
2018-01-02T19:55:10.630Z,3.49
2018-01-02T19:57:36.676Z,3.43
2018-01-02T20:00:02.878Z,3.44
2018-01-02T20:02:28.960Z,3.44
2018-01-02T20:04:55.006Z,3.38
2018-01-02T20:07:21.063Z,3.35
2018-01-02T20:09:47.413Z,3.36
2018-01-02T20:12:13.545Z,3.34
2018-01-02T20:14:39.596Z,3.34
2018-01-02T20:17:05.715Z,3.36
2018-01-02T20:19:31.736Z,3.32
2018-01-02T20:21:57.811Z,3.35
2018-01-02T20:24:23.900Z,3.34
2018-01-02T20:26:50.026Z,3.32
2018-01-02T20:29:16.067Z,3.30
2018-01-02T20:31:42.148Z,3.31
2018-01-02T20:34:08.205Z,3.37
2018-01-02T20:36:34.252Z,3.37
2018-01-02T20:39:00.313Z,3.32
2018-01-02T20:41:26.371Z,3.19
2018-01-02T20:43:52.431Z,3.14
2018-01-02T20:46:18.499Z,3.09
2018-01-02T20:48:44.687Z,3.06
2018-01-02T20:51:10.732Z,3.05
2018-01-02T20:53:37.677Z,3.21
2018-01-02T20:56:03.713Z,3.24
2018-01-02T20:58:29.810Z,3.12
2018-01-02T21:00:55.829Z,2.98
2018-01-02T21:03:21.880Z,2.97
2018-01-02T21:05:47.966Z,2.99
2018-01-02T21:08:13.946Z,3.04
2018-01-02T21:10:40.008Z,2.97
2018-01-02T21:13:06.025Z,2.93
2018-01-02T21:15:32.126Z,3.02
2018-01-02T21:17:58.180Z,3.05
2018-01-02T21:20:24.220Z,3.04
2018-01-02T21:22:50.267Z,3.05
2018-01-02T21:25:16.309Z,2.94
2018-01-02T21:27:42.361Z,3.03
2018-01-02T21:30:08.613Z,3.03
2018-01-02T21:32:34.665Z,2.98
2018-01-02T21:35:00.700Z,3.07
2018-01-02T21:37:26.772Z,3.09
2018-01-02T21:39:52.817Z,3.07
2018-01-02T21:42:18.868Z,3.09
2018-01-02T21:44:44.913Z,3.01
2018-01-02T21:47:11.020Z,2.97
2018-01-02T21:49:37.174Z,2.82
2018-01-02T21:52:03.237Z,2.71
2018-01-02T21:54:29.323Z,2.64
2018-01-02T21:56:55.388Z,2.58
2018-01-02T21:59:21.661Z,2.51
2018-01-02T22:01:47.713Z,2.43
2018-01-02T22:04:13.820Z,2.44
2018-01-02T22:06:39.829Z,2.44
2018-01-02T22:09:05.917Z,2.35
2018-01-02T22:11:32.021Z,2.38
2018-01-02T22:13:58.055Z,2.36
2018-01-02T22:16:24.144Z,2.24
2018-01-02T22:18:50.196Z,2.27
2018-01-02T22:21:16.264Z,2.25
2018-01-02T22:23:42.360Z,2.25
2018-01-02T22:26:08.405Z,2.31
2018-01-02T22:28:34.440Z,2.27
2018-01-02T22:31:00.516Z,2.28
2018-01-02T22:33:26.669Z,2.41
2018-01-02T22:35:52.728Z,2.38
2018-01-02T22:38:18.818Z,2.35
2018-01-02T22:40:44.878Z,2.38
2018-01-02T22:43:11.007Z,2.43
2018-01-02T22:45:37.081Z,2.38
2018-01-02T22:48:03.122Z,2.42
2018-01-02T22:50:29.319Z,2.52
2018-01-02T22:52:55.380Z,2.46
2018-01-02T22:55:21.579Z,2.63
2018-01-02T22:57:47.690Z,2.61
2018-01-02T23:00:14.666Z,2.61
2018-01-02T23:02:40.725Z,2.55
2018-01-02T23:05:06.778Z,2.51
2018-01-02T23:07:32.917Z,2.47
2018-01-02T23:09:58.990Z,2.43
2018-01-02T23:12:25.025Z,2.41
2018-01-02T23:14:51.247Z,2.38
2018-01-02T23:17:17.310Z,2.36
2018-01-02T23:19:43.450Z,2.35
2018-01-02T23:22:09.470Z,2.33
2018-01-02T23:24:35.538Z,2.33
2018-01-02T23:27:01.587Z,2.47
2018-01-02T23:29:27.670Z,2.42
2018-01-02T23:31:53.689Z,2.52
2018-01-02T23:34:19.802Z,2.66
2018-01-02T23:36:45.920Z,2.69
2018-01-02T23:39:12.085Z,2.74
2018-01-02T23:41:38.085Z,2.74
2018-01-02T23:44:04.141Z,2.80
2018-01-02T23:46:30.144Z,2.80
2018-01-02T23:48:56.202Z,2.89
2018-01-02T23:51:22.284Z,2.89
2018-01-02T23:53:48.357Z,2.95
2018-01-02T23:56:14.459Z,2.91
2018-01-02T23:58:40.478Z,2.93
